sensor_id;sensor_type;location;lat;lon;timestamp;P1;durP1;ratioP1;P2;durP2;ratioP2
17239;SDS011;9943;54.378;18.604;2022-10-22T00:00:46;46.40;;;30.70;;
17239;SDS011;9943;54.378;18.604;2022-10-22T00:03:18;44.30;;;31.08;;
17239;SDS011;9943;54.378;18.604;2022-10-22T00:05:49;48.65;;;31.98;;
17239;SDS011;9943;54.378;18.604;2022-10-22T00:08:17;45.60;;;31.15;;
17239;SDS011;9943;54.378;18.604;2022-10-22T00:10:48;45.15;;;31.45;;
17239;SDS011;9943;54.378;18.604;2022-10-22T00:13:21;46.33;;;31.80;;
17239;SDS011;9943;54.378;18.604;2022-10-22T00:15:52;47.50;;;33.00;;
17239;SDS011;9943;54.378;18.604;2022-10-22T00:18:21;44.33;;;32.08;;
17239;SDS011;9943;54.378;18.604;2022-10-22T00:20:52;46.45;;;32.08;;
17239;SDS011;9943;54.378;18.604;2022-10-22T00:23:20;45.72;;;31.55;;
17239;SDS011;9943;54.378;18.604;2022-10-22T00:25:49;45.95;;;33.33;;
17239;SDS011;9943;54.378;18.604;2022-10-22T00:28:20;49.22;;;32.28;;
17239;SDS011;9943;54.378;18.604;2022-10-22T00:30:54;50.15;;;32.40;;
17239;SDS011;9943;54.378;18.604;2022-10-22T00:33:23;46.42;;;31.67;;
17239;SDS011;9943;54.378;18.604;2022-10-22T00:35:54;45.60;;;31.48;;
17239;SDS011;9943;54.378;18.604;2022-10-22T00:38:23;47.38;;;32.22;;
17239;SDS011;9943;54.378;18.604;2022-10-22T00:40:53;44.13;;;30.83;;
17239;SDS011;9943;54.378;18.604;2022-10-22T00:43:21;49.67;;;31.60;;
17239;SDS011;9943;54.378;18.604;2022-10-22T00:45:50;44.80;;;31.92;;
17239;SDS011;9943;54.378;18.604;2022-10-22T00:48:21;46.17;;;31.80;;
17239;SDS011;9943;54.378;18.604;2022-10-22T00:50:56;49.17;;;31.70;;
17239;SDS011;9943;54.378;18.604;2022-10-22T00:53:28;43.47;;;30.30;;
17239;SDS011;9943;54.378;18.604;2022-10-22T00:56:00;43.05;;;31.90;;
17239;SDS011;9943;54.378;18.604;2022-10-22T00:58:30;46.95;;;31.27;;
17239;SDS011;9943;54.378;18.604;2022-10-22T01:01:04;45.10;;;31.23;;
17239;SDS011;9943;54.378;18.604;2022-10-22T01:03:36;45.33;;;29.83;;
17239;SDS011;9943;54.378;18.604;2022-10-22T01:06:09;49.35;;;32.28;;
17239;SDS011;9943;54.378;18.604;2022-10-22T01:08:49;44.95;;;31.35;;
17239;SDS011;9943;54.378;18.604;2022-10-22T01:11:32;41.97;;;29.73;;
17239;SDS011;9943;54.378;18.604;2022-10-22T01:14:12;48.08;;;31.20;;
17239;SDS011;9943;54.378;18.604;2022-10-22T01:16:52;45.90;;;31.13;;
17239;SDS011;9943;54.378;18.604;2022-10-22T01:19:35;42.13;;;30.08;;
17239;SDS011;9943;54.378;18.604;2022-10-22T01:22:25;46.70;;;32.95;;
17239;SDS011;9943;54.378;18.604;2022-10-22T01:25:02;45.42;;;30.55;;
17239;SDS011;9943;54.378;18.604;2022-10-22T01:30:28;43.17;;;30.35;;
17239;SDS011;9943;54.378;18.604;2022-10-22T01:33:01;46.80;;;30.92;;
17239;SDS011;9943;54.378;18.604;2022-10-22T01:35:36;43.35;;;31.00;;
17239;SDS011;9943;54.378;18.604;2022-10-22T01:38:11;47.22;;;30.45;;
17239;SDS011;9943;54.378;18.604;2022-10-22T01:40:45;47.42;;;32.50;;
17239;SDS011;9943;54.378;18.604;2022-10-22T01:43:16;42.83;;;30.00;;
17239;SDS011;9943;54.378;18.604;2022-10-22T01:45:51;40.92;;;29.25;;
17239;SDS011;9943;54.378;18.604;2022-10-22T01:48:34;46.90;;;31.65;;
17239;SDS011;9943;54.378;18.604;2022-10-22T01:51:20;45.78;;;31.15;;
17239;SDS011;9943;54.378;18.604;2022-10-22T01:53:59;46.03;;;31.33;;
17239;SDS011;9943;54.378;18.604;2022-10-22T01:56:40;45.70;;;30.85;;
17239;SDS011;9943;54.378;18.604;2022-10-22T01:59:20;42.58;;;30.63;;
17239;SDS011;9943;54.378;18.604;2022-10-22T02:02:19;46.03;;;31.40;;
17239;SDS011;9943;54.378;18.604;2022-10-22T02:04:56;46.80;;;31.42;;
17239;SDS011;9943;54.378;18.604;2022-10-22T02:07:31;46.35;;;31.77;;
17239;SDS011;9943;54.378;18.604;2022-10-22T02:10:08;47.03;;;32.35;;
17239;SDS011;9943;54.378;18.604;2022-10-22T02:12:38;50.20;;;32.58;;
17239;SDS011;9943;54.378;18.604;2022-10-22T02:15:09;49.28;;;31.65;;
17239;SDS011;9943;54.378;18.604;2022-10-22T02:17:40;40.85;;;29.55;;
17239;SDS011;9943;54.378;18.604;2022-10-22T02:20:13;47.80;;;31.48;;
17239;SDS011;9943;54.378;18.604;2022-10-22T02:22:45;45.28;;;30.35;;
17239;SDS011;9943;54.378;18.604;2022-10-22T02:25:14;47.03;;;30.65;;
17239;SDS011;9943;54.378;18.604;2022-10-22T02:27:44;46.80;;;30.90;;
17239;SDS011;9943;54.378;18.604;2022-10-22T02:30:17;47.35;;;32.58;;
17239;SDS011;9943;54.378;18.604;2022-10-22T02:32:53;43.85;;;30.20;;
17239;SDS011;9943;54.378;18.604;2022-10-22T02:35:25;51.60;;;30.60;;
17239;SDS011;9943;54.378;18.604;2022-10-22T02:37:56;45.92;;;31.80;;
17239;SDS011;9943;54.378;18.604;2022-10-22T02:40:29;48.70;;;31.60;;
17239;SDS011;9943;54.378;18.604;2022-10-22T02:42:59;44.10;;;31.73;;
17239;SDS011;9943;54.378;18.604;2022-10-22T02:45:31;48.90;;;32.17;;
17239;SDS011;9943;54.378;18.604;2022-10-22T02:48:04;49.65;;;32.53;;
17239;SDS011;9943;54.378;18.604;2022-10-22T02:50:35;51.88;;;31.73;;
17239;SDS011;9943;54.378;18.604;2022-10-22T02:53:04;45.97;;;31.30;;
17239;SDS011;9943;54.378;18.604;2022-10-22T02:55:34;45.47;;;29.63;;
17239;SDS011;9943;54.378;18.604;2022-10-22T02:58:04;48.40;;;31.58;;
17239;SDS011;9943;54.378;18.604;2022-10-22T03:00:35;42.88;;;31.08;;
17239;SDS011;9943;54.378;18.604;2022-10-22T03:03:08;47.13;;;31.15;;
17239;SDS011;9943;54.378;18.604;2022-10-22T03:05:37;44.20;;;30.38;;
17239;SDS011;9943;54.378;18.604;2022-10-22T03:08:07;45.30;;;30.65;;
17239;SDS011;9943;54.378;18.604;2022-10-22T03:10:35;46.08;;;28.90;;
17239;SDS011;9943;54.378;18.604;2022-10-22T03:13:05;48.20;;;30.15;;
17239;SDS011;9943;54.378;18.604;2022-10-22T03:15:36;42.25;;;29.92;;
17239;SDS011;9943;54.378;18.604;2022-10-22T03:18:08;42.45;;;29.27;;
17239;SDS011;9943;54.378;18.604;2022-10-22T03:20:37;46.75;;;30.30;;
17239;SDS011;9943;54.378;18.604;2022-10-22T03:23:06;43.58;;;30.52;;
17239;SDS011;9943;54.378;18.604;2022-10-22T03:25:38;45.13;;;31.25;;
17239;SDS011;9943;54.378;18.604;2022-10-22T03:28:10;44.75;;;31.02;;
17239;SDS011;9943;54.378;18.604;2022-10-22T03:30:43;45.53;;;30.75;;
17239;SDS011;9943;54.378;18.604;2022-10-22T03:33:17;43.42;;;30.23;;
17239;SDS011;9943;54.378;18.604;2022-10-22T03:35:46;48.55;;;32.90;;
17239;SDS011;9943;54.378;18.604;2022-10-22T03:38:16;45.65;;;31.48;;
17239;SDS011;9943;54.378;18.604;2022-10-22T03:40:45;47.08;;;32.38;;
17239;SDS011;9943;54.378;18.604;2022-10-22T03:43:14;47.40;;;32.67;;
17239;SDS011;9943;54.378;18.604;2022-10-22T03:45:44;53.67;;;34.17;;
17239;SDS011;9943;54.378;18.604;2022-10-22T03:48:12;52.85;;;34.03;;
17239;SDS011;9943;54.378;18.604;2022-10-22T03:50:47;53.38;;;38.40;;
17239;SDS011;9943;54.378;18.604;2022-10-22T03:53:16;54.85;;;37.17;;
17239;SDS011;9943;54.378;18.604;2022-10-22T03:55:45;46.97;;;32.50;;
17239;SDS011;9943;54.378;18.604;2022-10-22T03:58:16;44.90;;;31.00;;
17239;SDS011;9943;54.378;18.604;2022-10-22T04:04:28;40.67;;;29.85;;
17239;SDS011;9943;54.378;18.604;2022-10-22T04:06:57;47.17;;;31.27;;
17239;SDS011;9943;54.378;18.604;2022-10-22T04:09:26;45.83;;;32.35;;
17239;SDS011;9943;54.378;18.604;2022-10-22T04:11:59;73.88;;;46.85;;
17239;SDS011;9943;54.378;18.604;2022-10-22T04:14:29;55.00;;;38.28;;
17239;SDS011;9943;54.378;18.604;2022-10-22T04:16:58;49.08;;;32.97;;
17239;SDS011;9943;54.378;18.604;2022-10-22T04:19:31;56.72;;;40.05;;
17239;SDS011;9943;54.378;18.604;2022-10-22T04:21:59;58.67;;;38.65;;
17239;SDS011;9943;54.378;18.604;2022-10-22T04:24:31;48.20;;;34.90;;
17239;SDS011;9943;54.378;18.604;2022-10-22T04:27:01;44.80;;;31.13;;
17239;SDS011;9943;54.378;18.604;2022-10-22T04:29:30;51.13;;;33.08;;
17239;SDS011;9943;54.378;18.604;2022-10-22T04:32:02;49.50;;;31.20;;
17239;SDS011;9943;54.378;18.604;2022-10-22T04:34:35;43.78;;;31.35;;
17239;SDS011;9943;54.378;18.604;2022-10-22T04:37:05;45.65;;;33.13;;
17239;SDS011;9943;54.378;18.604;2022-10-22T04:39:35;47.08;;;32.45;;
17239;SDS011;9943;54.378;18.604;2022-10-22T04:42:04;46.45;;;32.88;;
17239;SDS011;9943;54.378;18.604;2022-10-22T04:44:35;48.00;;;34.00;;
17239;SDS011;9943;54.378;18.604;2022-10-22T04:47:04;46.00;;;31.35;;
17239;SDS011;9943;54.378;18.604;2022-10-22T04:49:38;45.78;;;31.40;;
17239;SDS011;9943;54.378;18.604;2022-10-22T04:52:07;42.38;;;30.13;;
17239;SDS011;9943;54.378;18.604;2022-10-22T04:54:39;42.92;;;30.42;;
17239;SDS011;9943;54.378;18.604;2022-10-22T04:57:09;45.53;;;29.88;;
17239;SDS011;9943;54.378;18.604;2022-10-22T04:59:39;46.63;;;31.70;;
17239;SDS011;9943;54.378;18.604;2022-10-22T05:02:09;44.25;;;28.52;;
17239;SDS011;9943;54.378;18.604;2022-10-22T05:04:39;42.35;;;30.58;;
17239;SDS011;9943;54.378;18.604;2022-10-22T05:07:11;47.33;;;30.92;;
17239;SDS011;9943;54.378;18.604;2022-10-22T05:09:39;44.22;;;30.15;;
17239;SDS011;9943;54.378;18.604;2022-10-22T05:12:08;44.28;;;31.33;;
17239;SDS011;9943;54.378;18.604;2022-10-22T05:14:38;47.00;;;32.03;;
17239;SDS011;9943;54.378;18.604;2022-10-22T05:17:06;46.72;;;30.40;;
17239;SDS011;9943;54.378;18.604;2022-10-22T05:19:36;48.55;;;32.08;;
17239;SDS011;9943;54.378;18.604;2022-10-22T05:22:07;44.63;;;31.02;;
17239;SDS011;9943;54.378;18.604;2022-10-22T05:24:35;44.78;;;32.35;;
17239;SDS011;9943;54.378;18.604;2022-10-22T05:27:06;42.92;;;30.52;;
17239;SDS011;9943;54.378;18.604;2022-10-22T05:29:37;44.58;;;31.08;;
17239;SDS011;9943;54.378;18.604;2022-10-22T05:32:05;46.85;;;32.58;;
17239;SDS011;9943;54.378;18.604;2022-10-22T05:34:36;44.60;;;30.88;;
17239;SDS011;9943;54.378;18.604;2022-10-22T05:37:06;44.25;;;31.70;;
17239;SDS011;9943;54.378;18.604;2022-10-22T05:39:59;43.00;;;29.58;;
17239;SDS011;9943;54.378;18.604;2022-10-22T05:42:31;53.95;;;37.40;;
17239;SDS011;9943;54.378;18.604;2022-10-22T05:45:01;48.97;;;33.13;;
17239;SDS011;9943;54.378;18.604;2022-10-22T05:47:31;47.10;;;31.33;;
17239;SDS011;9943;54.378;18.604;2022-10-22T05:50:03;43.95;;;31.30;;
17239;SDS011;9943;54.378;18.604;2022-10-22T05:52:33;45.28;;;30.85;;
17239;SDS011;9943;54.378;18.604;2022-10-22T05:55:05;44.67;;;29.40;;
17239;SDS011;9943;54.378;18.604;2022-10-22T05:57:36;42.25;;;29.85;;
17239;SDS011;9943;54.378;18.604;2022-10-22T06:00:06;46.17;;;30.75;;
17239;SDS011;9943;54.378;18.604;2022-10-22T06:02:38;42.65;;;30.25;;
17239;SDS011;9943;54.378;18.604;2022-10-22T06:05:09;47.67;;;31.30;;
17239;SDS011;9943;54.378;18.604;2022-10-22T06:07:39;42.85;;;30.00;;
17239;SDS011;9943;54.378;18.604;2022-10-22T06:10:13;45.00;;;30.38;;
17239;SDS011;9943;54.378;18.604;2022-10-22T06:12:49;42.83;;;29.95;;
17239;SDS011;9943;54.378;18.604;2022-10-22T06:15:22;41.50;;;29.10;;
17239;SDS011;9943;54.378;18.604;2022-10-22T06:17:51;41.90;;;30.30;;
17239;SDS011;9943;54.378;18.604;2022-10-22T06:20:21;42.45;;;29.92;;
17239;SDS011;9943;54.378;18.604;2022-10-22T06:22:59;42.13;;;29.60;;
17239;SDS011;9943;54.378;18.604;2022-10-22T06:25:34;46.75;;;29.77;;
17239;SDS011;9943;54.378;18.604;2022-10-22T06:28:05;39.50;;;29.48;;
17239;SDS011;9943;54.378;18.604;2022-10-22T06:30:38;39.90;;;29.83;;
17239;SDS011;9943;54.378;18.604;2022-10-22T06:33:08;51.30;;;37.95;;
17239;SDS011;9943;54.378;18.604;2022-10-22T06:35:43;48.35;;;35.03;;
17239;SDS011;9943;54.378;18.604;2022-10-22T06:38:13;45.78;;;31.38;;
17239;SDS011;9943;54.378;18.604;2022-10-22T06:40:42;41.45;;;29.85;;
17239;SDS011;9943;54.378;18.604;2022-10-22T06:43:13;42.85;;;28.27;;
17239;SDS011;9943;54.378;18.604;2022-10-22T06:45:46;41.45;;;30.20;;
17239;SDS011;9943;54.378;18.604;2022-10-22T06:48:15;43.40;;;31.23;;
17239;SDS011;9943;54.378;18.604;2022-10-22T06:50:51;44.25;;;30.70;;
17239;SDS011;9943;54.378;18.604;2022-10-22T06:53:24;42.92;;;31.45;;
17239;SDS011;9943;54.378;18.604;2022-10-22T06:55:53;45.38;;;30.05;;
17239;SDS011;9943;54.378;18.604;2022-10-22T06:58:23;46.50;;;29.65;;
17239;SDS011;9943;54.378;18.604;2022-10-22T07:00:59;42.30;;;28.98;;
17239;SDS011;9943;54.378;18.604;2022-10-22T07:03:35;40.83;;;29.73;;
17239;SDS011;9943;54.378;18.604;2022-10-22T07:06:11;41.58;;;29.65;;
17239;SDS011;9943;54.378;18.604;2022-10-22T07:08:44;42.03;;;29.88;;
17239;SDS011;9943;54.378;18.604;2022-10-22T07:11:13;43.63;;;30.02;;
17239;SDS011;9943;54.378;18.604;2022-10-22T07:13:48;36.95;;;28.33;;
17239;SDS011;9943;54.378;18.604;2022-10-22T07:16:20;42.05;;;29.88;;
17239;SDS011;9943;54.378;18.604;2022-10-22T07:18:50;39.70;;;28.50;;
17239;SDS011;9943;54.378;18.604;2022-10-22T07:21:24;42.88;;;30.83;;
17239;SDS011;9943;54.378;18.604;2022-10-22T07:23:57;42.83;;;31.15;;
17239;SDS011;9943;54.378;18.604;2022-10-22T07:26:28;51.60;;;34.55;;
17239;SDS011;9943;54.378;18.604;2022-10-22T07:29:12;64.22;;;39.67;;
17239;SDS011;9943;54.378;18.604;2022-10-22T07:31:50;54.40;;;35.03;;
17239;SDS011;9943;54.378;18.604;2022-10-22T07:34:23;44.22;;;31.98;;
17239;SDS011;9943;54.378;18.604;2022-10-22T07:36:53;45.95;;;32.67;;
17239;SDS011;9943;54.378;18.604;2022-10-22T07:39:23;40.80;;;30.63;;
17239;SDS011;9943;54.378;18.604;2022-10-22T07:41:53;45.10;;;29.58;;
17239;SDS011;9943;54.378;18.604;2022-10-22T07:44:22;39.72;;;30.23;;
17239;SDS011;9943;54.378;18.604;2022-10-22T07:46:54;43.35;;;30.40;;
17239;SDS011;9943;54.378;18.604;2022-10-22T07:49:30;43.72;;;30.95;;
17239;SDS011;9943;54.378;18.604;2022-10-22T07:52:08;42.83;;;30.48;;
17239;SDS011;9943;54.378;18.604;2022-10-22T07:54:37;43.67;;;31.05;;
17239;SDS011;9943;54.378;18.604;2022-10-22T07:57:06;42.38;;;30.60;;
17239;SDS011;9943;54.378;18.604;2022-10-22T07:59:38;43.03;;;31.00;;
17239;SDS011;9943;54.378;18.604;2022-10-22T08:02:08;41.22;;;30.73;;
17239;SDS011;9943;54.378;18.604;2022-10-22T08:04:39;44.25;;;31.45;;
17239;SDS011;9943;54.378;18.604;2022-10-22T08:07:13;45.72;;;33.38;;
17239;SDS011;9943;54.378;18.604;2022-10-22T08:09:43;49.90;;;34.65;;
17239;SDS011;9943;54.378;18.604;2022-10-22T08:12:14;47.38;;;33.88;;
17239;SDS011;9943;54.378;18.604;2022-10-22T08:14:48;48.58;;;33.80;;
17239;SDS011;9943;54.378;18.604;2022-10-22T08:17:20;44.33;;;32.58;;
17239;SDS011;9943;54.378;18.604;2022-10-22T08:19:51;40.95;;;32.22;;
17239;SDS011;9943;54.378;18.604;2022-10-22T08:22:23;46.97;;;33.30;;
17239;SDS011;9943;54.378;18.604;2022-10-22T08:24:56;45.60;;;33.78;;
17239;SDS011;9943;54.378;18.604;2022-10-22T08:27:26;48.08;;;33.15;;
17239;SDS011;9943;54.378;18.604;2022-10-22T08:29:57;44.28;;;33.15;;
17239;SDS011;9943;54.378;18.604;2022-10-22T08:32:29;49.85;;;33.97;;
17239;SDS011;9943;54.378;18.604;2022-10-22T08:34:58;43.25;;;33.22;;
17239;SDS011;9943;54.378;18.604;2022-10-22T08:37:33;46.35;;;34.47;;
17239;SDS011;9943;54.378;18.604;2022-10-22T08:40:06;45.83;;;33.50;;
17239;SDS011;9943;54.378;18.604;2022-10-22T08:42:49;45.78;;;34.25;;
17239;SDS011;9943;54.378;18.604;2022-10-22T08:45:52;44.80;;;33.28;;
17239;SDS011;9943;54.378;18.604;2022-10-22T08:48:36;46.63;;;33.63;;
17239;SDS011;9943;54.378;18.604;2022-10-22T08:51:31;42.63;;;31.88;;
17239;SDS011;9943;54.378;18.604;2022-10-22T08:57:43;50.03;;;34.13;;
17239;SDS011;9943;54.378;18.604;2022-10-22T09:00:23;46.17;;;32.30;;
17239;SDS011;9943;54.378;18.604;2022-10-22T09:03:20;49.17;;;34.22;;
17239;SDS011;9943;54.378;18.604;2022-10-22T09:06:20;45.08;;;32.22;;
17239;SDS011;9943;54.378;18.604;2022-10-22T09:09:22;43.80;;;33.00;;
17239;SDS011;9943;54.378;18.604;2022-10-22T09:11:59;49.35;;;33.35;;
17239;SDS011;9943;54.378;18.604;2022-10-22T09:14:35;46.63;;;33.35;;
17239;SDS011;9943;54.378;18.604;2022-10-22T09:17:53;43.00;;;33.25;;
17239;SDS011;9943;54.378;18.604;2022-10-22T09:21:15;53.45;;;34.30;;
17239;SDS011;9943;54.378;18.604;2022-10-22T09:24:26;43.00;;;32.97;;
17239;SDS011;9943;54.378;18.604;2022-10-22T09:27:18;47.88;;;34.63;;
17239;SDS011;9943;54.378;18.604;2022-10-22T09:29:51;46.17;;;34.38;;
17239;SDS011;9943;54.378;18.604;2022-10-22T09:35:47;44.47;;;31.88;;
17239;SDS011;9943;54.378;18.604;2022-10-22T09:38:28;45.08;;;33.88;;
17239;SDS011;9943;54.378;18.604;2022-10-22T09:41:41;49.42;;;35.22;;
17239;SDS011;9943;54.378;18.604;2022-10-22T09:54:38;41.22;;;31.35;;
17239;SDS011;9943;54.378;18.604;2022-10-22T09:57:20;43.65;;;32.90;;
17239;SDS011;9943;54.378;18.604;2022-10-22T10:03:16;44.83;;;29.08;;
17239;SDS011;9943;54.378;18.604;2022-10-22T10:05:57;42.40;;;27.75;;
17239;SDS011;9943;54.378;18.604;2022-10-22T10:08:33;45.45;;;27.73;;
17239;SDS011;9943;54.378;18.604;2022-10-22T10:11:10;38.40;;;27.00;;
17239;SDS011;9943;54.378;18.604;2022-10-22T10:13:49;34.70;;;23.30;;
17239;SDS011;9943;54.378;18.604;2022-10-22T10:19:45;33.95;;;24.15;;
17239;SDS011;9943;54.378;18.604;2022-10-22T10:22:47;31.90;;;23.88;;
17239;SDS011;9943;54.378;18.604;2022-10-22T10:25:47;35.22;;;24.00;;
17239;SDS011;9943;54.378;18.604;2022-10-22T10:32:05;33.95;;;23.95;;
17239;SDS011;9943;54.378;18.604;2022-10-22T10:41:46;36.08;;;24.30;;
17239;SDS011;9943;54.378;18.604;2022-10-22T10:45:09;34.80;;;24.90;;
17239;SDS011;9943;54.378;18.604;2022-10-22T10:57:48;35.45;;;22.92;;
17239;SDS011;9943;54.378;18.604;2022-10-22T11:00:55;32.40;;;23.50;;
17239;SDS011;9943;54.378;18.604;2022-10-22T11:07:35;30.65;;;21.90;;
17239;SDS011;9943;54.378;18.604;2022-10-22T11:10:26;29.85;;;20.48;;
17239;SDS011;9943;54.378;18.604;2022-10-22T11:13:16;27.45;;;20.63;;
17239;SDS011;9943;54.378;18.604;2022-10-22T11:16:02;29.73;;;20.98;;
17239;SDS011;9943;54.378;18.604;2022-10-22T11:18:51;30.95;;;19.80;;
17239;SDS011;9943;54.378;18.604;2022-10-22T11:21:49;30.38;;;20.98;;
17239;SDS011;9943;54.378;18.604;2022-10-22T11:27:48;29.58;;;20.13;;
17239;SDS011;9943;54.378;18.604;2022-10-22T11:34:10;30.10;;;20.60;;
17239;SDS011;9943;54.378;18.604;2022-10-22T11:36:48;25.13;;;17.67;;
17239;SDS011;9943;54.378;18.604;2022-10-22T11:39:28;24.98;;;17.85;;
17239;SDS011;9943;54.378;18.604;2022-10-22T11:45:35;23.92;;;17.25;;
17239;SDS011;9943;54.378;18.604;2022-10-22T11:48:14;22.38;;;16.02;;
17239;SDS011;9943;54.378;18.604;2022-10-22T11:50:53;24.90;;;16.88;;
17239;SDS011;9943;54.378;18.604;2022-10-22T11:53:31;23.48;;;16.55;;
17239;SDS011;9943;54.378;18.604;2022-10-22T11:56:19;24.80;;;17.05;;
17239;SDS011;9943;54.378;18.604;2022-10-22T12:11:48;24.75;;;17.45;;
17239;SDS011;9943;54.378;18.604;2022-10-22T12:14:22;26.42;;;18.40;;
17239;SDS011;9943;54.378;18.604;2022-10-22T12:17:09;22.75;;;17.33;;
17239;SDS011;9943;54.378;18.604;2022-10-22T12:19:53;26.48;;;17.40;;
17239;SDS011;9943;54.378;18.604;2022-10-22T12:22:36;28.48;;;18.50;;
17239;SDS011;9943;54.378;18.604;2022-10-22T12:25:15;29.08;;;19.02;;
17239;SDS011;9943;54.378;18.604;2022-10-22T12:27:51;36.00;;;20.20;;
17239;SDS011;9943;54.378;18.604;2022-10-22T12:30:39;31.58;;;18.58;;
17239;SDS011;9943;54.378;18.604;2022-10-22T12:33:23;29.08;;;18.38;;
17239;SDS011;9943;54.378;18.604;2022-10-22T12:42:57;30.33;;;19.33;;
17239;SDS011;9943;54.378;18.604;2022-10-22T12:45:32;32.28;;;20.30;;
17239;SDS011;9943;54.378;18.604;2022-10-22T12:48:14;32.08;;;20.70;;
17239;SDS011;9943;54.378;18.604;2022-10-22T12:51:13;35.55;;;21.42;;
17239;SDS011;9943;54.378;18.604;2022-10-22T12:54:00;35.22;;;19.50;;
17239;SDS011;9943;54.378;18.604;2022-10-22T12:59:47;37.45;;;22.50;;
17239;SDS011;9943;54.378;18.604;2022-10-22T13:02:22;42.83;;;22.00;;
17239;SDS011;9943;54.378;18.604;2022-10-22T13:05:09;43.03;;;24.40;;
17239;SDS011;9943;54.378;18.604;2022-10-22T13:08:16;35.65;;;22.65;;
17239;SDS011;9943;54.378;18.604;2022-10-22T13:11:08;42.15;;;24.13;;
17239;SDS011;9943;54.378;18.604;2022-10-22T13:13:59;45.03;;;24.88;;
17239;SDS011;9943;54.378;18.604;2022-10-22T13:16:50;47.58;;;25.98;;
17239;SDS011;9943;54.378;18.604;2022-10-22T13:19:47;48.50;;;27.63;;
17239;SDS011;9943;54.378;18.604;2022-10-22T13:22:50;45.17;;;27.38;;
17239;SDS011;9943;54.378;18.604;2022-10-22T13:28:50;54.80;;;28.45;;
17239;SDS011;9943;54.378;18.604;2022-10-22T13:31:35;55.60;;;28.45;;
17239;SDS011;9943;54.378;18.604;2022-10-22T13:34:30;55.75;;;28.85;;
17239;SDS011;9943;54.378;18.604;2022-10-22T13:37:04;57.30;;;29.42;;
17239;SDS011;9943;54.378;18.604;2022-10-22T13:39:39;49.50;;;30.20;;
17239;SDS011;9943;54.378;18.604;2022-10-22T13:42:17;56.60;;;29.88;;
17239;SDS011;9943;54.378;18.604;2022-10-22T13:44:47;59.50;;;30.42;;
17239;SDS011;9943;54.378;18.604;2022-10-22T13:47:27;62.85;;;30.88;;
17239;SDS011;9943;54.378;18.604;2022-10-22T13:50:11;55.97;;;31.38;;
17239;SDS011;9943;54.378;18.604;2022-10-22T13:55:58;68.78;;;34.28;;
17239;SDS011;9943;54.378;18.604;2022-10-22T13:58:44;55.25;;;30.95;;
17239;SDS011;9943;54.378;18.604;2022-10-22T14:01:28;57.95;;;32.22;;
17239;SDS011;9943;54.378;18.604;2022-10-22T14:04:00;62.30;;;32.08;;
17239;SDS011;9943;54.378;18.604;2022-10-22T14:06:39;65.63;;;32.55;;
17239;SDS011;9943;54.378;18.604;2022-10-22T14:09:12;63.25;;;31.98;;
17239;SDS011;9943;54.378;18.604;2022-10-22T14:11:48;59.28;;;32.42;;
17239;SDS011;9943;54.378;18.604;2022-10-22T14:14:23;63.80;;;32.60;;
17239;SDS011;9943;54.378;18.604;2022-10-22T14:17:15;64.00;;;34.22;;
17239;SDS011;9943;54.378;18.604;2022-10-22T14:19:53;64.57;;;34.38;;
17239;SDS011;9943;54.378;18.604;2022-10-22T14:22:26;55.10;;;30.83;;
17239;SDS011;9943;54.378;18.604;2022-10-22T14:25:24;53.88;;;29.33;;
17239;SDS011;9943;54.378;18.604;2022-10-22T14:27:59;67.30;;;31.80;;
17239;SDS011;9943;54.378;18.604;2022-10-22T14:30:50;53.20;;;29.23;;
17239;SDS011;9943;54.378;18.604;2022-10-22T14:33:23;55.70;;;29.63;;
17239;SDS011;9943;54.378;18.604;2022-10-22T14:35:57;58.22;;;28.00;;
17239;SDS011;9943;54.378;18.604;2022-10-22T14:38:32;51.85;;;28.27;;
17239;SDS011;9943;54.378;18.604;2022-10-22T14:41:27;52.25;;;27.55;;
17239;SDS011;9943;54.378;18.604;2022-10-22T14:44:00;52.03;;;27.88;;
17239;SDS011;9943;54.378;18.604;2022-10-22T14:46:55;51.97;;;26.65;;
17239;SDS011;9943;54.378;18.604;2022-10-22T14:49:41;45.17;;;25.88;;
17239;SDS011;9943;54.378;18.604;2022-10-22T14:52:21;47.63;;;26.65;;
17239;SDS011;9943;54.378;18.604;2022-10-22T14:55:47;47.72;;;25.58;;
17239;SDS011;9943;54.378;18.604;2022-10-22T14:58:27;49.75;;;27.30;;
17239;SDS011;9943;54.378;18.604;2022-10-22T15:01:18;50.42;;;25.42;;
17239;SDS011;9943;54.378;18.604;2022-10-22T15:04:12;50.70;;;23.55;;
17239;SDS011;9943;54.378;18.604;2022-10-22T15:06:48;39.58;;;21.20;;
17239;SDS011;9943;54.378;18.604;2022-10-22T15:12:42;44.40;;;22.90;;
17239;SDS011;9943;54.378;18.604;2022-10-22T15:18:33;41.88;;;22.33;;
17239;SDS011;9943;54.378;18.604;2022-10-22T15:24:21;41.85;;;22.42;;
17239;SDS011;9943;54.378;18.604;2022-10-22T15:27:14;44.65;;;24.10;;
17239;SDS011;9943;54.378;18.604;2022-10-22T15:30:01;42.10;;;22.55;;
17239;SDS011;9943;54.378;18.604;2022-10-22T15:32:44;41.28;;;22.10;;
17239;SDS011;9943;54.378;18.604;2022-10-22T15:35:26;39.30;;;22.40;;
17239;SDS011;9943;54.378;18.604;2022-10-22T15:41:12;38.20;;;21.02;;
17239;SDS011;9943;54.378;18.604;2022-10-22T15:43:49;39.47;;;22.70;;
17239;SDS011;9943;54.378;18.604;2022-10-22T15:46:27;41.05;;;22.77;;
17239;SDS011;9943;54.378;18.604;2022-10-22T15:49:02;41.63;;;23.35;;
17239;SDS011;9943;54.378;18.604;2022-10-22T15:51:49;36.90;;;22.08;;
17239;SDS011;9943;54.378;18.604;2022-10-22T15:54:33;41.47;;;22.63;;
17239;SDS011;9943;54.378;18.604;2022-10-22T16:04:03;43.42;;;21.63;;
17239;SDS011;9943;54.378;18.604;2022-10-22T16:06:52;40.53;;;23.50;;
17239;SDS011;9943;54.378;18.604;2022-10-22T16:09:33;43.30;;;22.60;;
17239;SDS011;9943;54.378;18.604;2022-10-22T16:12:27;41.05;;;22.35;;
17239;SDS011;9943;54.378;18.604;2022-10-22T16:15:06;46.45;;;23.17;;
17239;SDS011;9943;54.378;18.604;2022-10-22T16:18:04;36.33;;;22.08;;
17239;SDS011;9943;54.378;18.604;2022-10-22T16:23:54;46.63;;;23.45;;
17239;SDS011;9943;54.378;18.604;2022-10-22T16:26:55;42.90;;;21.75;;
17239;SDS011;9943;54.378;18.604;2022-10-22T16:29:33;45.17;;;23.48;;
17239;SDS011;9943;54.378;18.604;2022-10-22T16:32:09;43.85;;;22.08;;
17239;SDS011;9943;54.378;18.604;2022-10-22T16:34:59;43.95;;;21.70;;
17239;SDS011;9943;54.378;18.604;2022-10-22T16:48:26;48.38;;;24.17;;
17239;SDS011;9943;54.378;18.604;2022-10-22T16:52:08;46.28;;;22.77;;
17239;SDS011;9943;54.378;18.604;2022-10-22T16:58:14;48.50;;;22.08;;
17239;SDS011;9943;54.378;18.604;2022-10-22T17:01:31;43.80;;;21.77;;
17239;SDS011;9943;54.378;18.604;2022-10-22T17:04:11;45.45;;;21.52;;
17239;SDS011;9943;54.378;18.604;2022-10-22T17:13:12;47.80;;;23.63;;
17239;SDS011;9943;54.378;18.604;2022-10-22T17:15:47;47.28;;;22.77;;
17239;SDS011;9943;54.378;18.604;2022-10-22T17:18:37;46.15;;;22.88;;
17239;SDS011;9943;54.378;18.604;2022-10-22T17:24:21;45.50;;;21.25;;
17239;SDS011;9943;54.378;18.604;2022-10-22T17:29:54;52.35;;;22.88;;
17239;SDS011;9943;54.378;18.604;2022-10-22T17:32:39;44.47;;;22.08;;
17239;SDS011;9943;54.378;18.604;2022-10-22T17:35:28;47.70;;;21.77;;
17239;SDS011;9943;54.378;18.604;2022-10-22T17:38:01;46.50;;;21.15;;
17239;SDS011;9943;54.378;18.604;2022-10-22T17:41:06;38.92;;;19.92;;
17239;SDS011;9943;54.378;18.604;2022-10-22T17:43:52;50.72;;;21.42;;
17239;SDS011;9943;54.378;18.604;2022-10-22T17:46:26;43.28;;;21.92;;